»·PEaware :: N7577V KLAS-KLAX

N7577V :: KLAS-KLAX

FLIGHT INFORMATION

Flight Status: Arrived
Operator: Privately registered:
United States
More flights under this callsign
Pilot: Charles H. (27427)
Aircraft: CESSNA 182 SKYLANE
(C182)
More flights by this aircraft type
Origin: KLAS McCarran Intl
United States
Destination: KLAX Los Angeles Intl
United States
More flights between these airports :: More routes between these airports
Route: LAS V538 GFS V210 HEC V12 PMD KIMMO3
File this flight plan on PilotEdge
Remarks: Request ILS RWY 25L at KLAX
Altitude:
(Current/Filed)
10,000ft
Speed:
(Current/Filed)
130kts
Departed: 10-Jan-21 01:38 PM
Arrived: 10-Jan-21 03:38 PM
Distance/Time
Traveled:
205nm/2:00
Distance/Time
To Go:
Arrived

Flight Plot

Page will automatically refresh every two minutes.

Flight plan parsing failed; only flown route is shown


Map Options




Map Legend


Flown Route
Filed Route
Departure Airport
Arrival Airport
Navaid (VOR, NDB)
Fix

Horizontal Profiles

Position Reports

Time Latitude Longitude Heading Altitude Ground
Speed
10-Jan-21 12:56 36.084034 -115.169884 179 2183ft 0kts
10-Jan-21 12:57 36.084034 -115.169884 179 2183ft 0kts
10-Jan-21 12:58 36.084034 -115.169884 179 2183ft 0kts
10-Jan-21 12:59 36.084034 -115.169884 179 2183ft 0kts
10-Jan-21 13:00 36.084034 -115.169884 179 2183ft 0kts
10-Jan-21 13:01 36.084034 -115.169884 179 2183ft 0kts
10-Jan-21 13:02 36.084034 -115.169884 179 2183ft 0kts
10-Jan-21 13:03 36.084034 -115.169884 179 2183ft 0kts
10-Jan-21 13:04 36.084034 -115.169884 179 2183ft 0kts
10-Jan-21 13:05 36.084034 -115.169884 179 2183ft 0kts
10-Jan-21 13:06 36.084034 -115.169884 179 2183ft 0kts
10-Jan-21 13:07 36.084034 -115.169884 179 2183ft 0kts
10-Jan-21 13:08 36.084034 -115.169884 179 2183ft 0kts
10-Jan-21 13:09 36.084034 -115.169884 179 2183ft 0kts
10-Jan-21 13:10 36.084034 -115.169884 179 2183ft 0kts
10-Jan-21 13:11 36.084034 -115.169884 179 2183ft 0kts
10-Jan-21 13:12 36.084034 -115.169884 179 2183ft 0kts
10-Jan-21 13:13 36.084034 -115.169884 179 2183ft 0kts
10-Jan-21 13:14 36.084034 -115.169884 179 2183ft 0kts
10-Jan-21 13:15 36.084034 -115.169884 179 2183ft 0kts
10-Jan-21 13:16 36.084034 -115.169884 179 2183ft 0kts
10-Jan-21 13:17 36.084034 -115.169884 179 2183ft 0kts
10-Jan-21 13:18 36.084034 -115.169884 179 2183ft 0kts
10-Jan-21 13:19 36.084034 -115.169884 179 2183ft 0kts
10-Jan-21 13:20 36.084034 -115.169884 179 2183ft 0kts
10-Jan-21 13:21 36.084034 -115.169884 179 2183ft 0kts
10-Jan-21 13:22 36.084034 -115.169884 179 2183ft 0kts
10-Jan-21 13:23 36.084034 -115.169884 179 2183ft 0kts
10-Jan-21 13:24 36.084034 -115.169884 179 2183ft 0kts
10-Jan-21 13:25 36.084034 -115.169884 179 2183ft 0kts
10-Jan-21 13:26 36.084034 -115.169884 179 2183ft 0kts
10-Jan-21 13:27 36.084034 -115.169884 179 2183ft 0kts
10-Jan-21 13:28 36.083887 -115.169516 97 2183ft 6kts
10-Jan-21 13:29 36.085278 -115.167582 41 2183ft 8kts
10-Jan-21 13:30 36.087985 -115.165519 25 2183ft 14kts
10-Jan-21 13:31 36.091555 -115.163478 24 2183ft 14kts
10-Jan-21 13:32 36.095173 -115.161410 24 2183ft 14kts
10-Jan-21 13:33 36.098651 -115.159425 24 2183ft 8kts
10-Jan-21 13:34 36.099790 -115.157831 69 2183ft 6kts
10-Jan-21 13:35 36.099846 -115.157585 83 2183ft 0kts
10-Jan-21 13:36 36.099809 -115.157278 111 2183ft 8kts
10-Jan-21 13:37 36.090344 -115.161748 207 2397ft 78kts
10-Jan-21 13:38 36.067892 -115.168014 184 3446ft 92kts
10-Jan-21 13:39 36.040461 -115.169916 184 4251ft 102kts
10-Jan-21 13:40 36.011803 -115.171566 184 5033ft 104kts
10-Jan-21 13:41 35.982459 -115.172867 184 5816ft 106kts
10-Jan-21 13:42 35.952561 -115.174010 184 6599ft 109kts
10-Jan-21 13:43 35.922100 -115.175025 184 7376ft 111kts
10-Jan-21 13:44 35.891007 -115.175922 184 8116ft 113kts
10-Jan-21 13:45 35.859360 -115.176709 184 8829ft 115kts
10-Jan-21 13:46 35.827103 -115.177391 184 9530ft 117kts
10-Jan-21 13:47 35.793680 -115.178041 184 10057ft 134kts
10-Jan-21 13:48 35.751137 -115.179553 184 10006ft 162kts
10-Jan-21 13:49 35.705465 -115.181341 184 10023ft 165kts
10-Jan-21 13:50 35.659960 -115.183093 184 10023ft 163kts
10-Jan-21 13:51 35.615371 -115.184716 184 10023ft 158kts
10-Jan-21 13:52 35.571604 -115.186253 184 10024ft 157kts
10-Jan-21 13:53 35.527668 -115.187356 171 10020ft 159kts
10-Jan-21 13:54 35.486478 -115.171106 177 10048ft 156kts
10-Jan-21 13:55 35.443171 -115.170172 183 10076ft 157kts
10-Jan-21 13:56 35.399284 -115.170791 183 10075ft 157kts
10-Jan-21 13:58 35.355325 -115.171529 183 10074ft 158kts
10-Jan-21 13:59 35.311324 -115.172261 183 10062ft 159kts
10-Jan-21 14:00 35.265140 -115.173027 183 10049ft 160kts
10-Jan-21 14:01 35.216837 -115.173832 183 10034ft 161kts
10-Jan-21 14:02 35.172016 -115.174602 183 10027ft 161kts
10-Jan-21 14:03 35.128323 -115.183171 243 10023ft 146kts
10-Jan-21 14:04 35.115189 -115.229938 260 10030ft 141kts
10-Jan-21 14:05 35.103567 -115.275649 260 10034ft 140kts
10-Jan-21 14:06 35.091999 -115.321230 260 10036ft 140kts
10-Jan-21 14:07 35.080407 -115.366813 260 10037ft 140kts
10-Jan-21 14:08 35.068761 -115.412488 260 10036ft 140kts
10-Jan-21 14:09 35.056797 -115.458504 260 10010ft 142kts
10-Jan-21 14:10 35.044959 -115.504704 260 10016ft 142kts
10-Jan-21 14:11 35.033150 -115.550847 260 10024ft 142kts
10-Jan-21 14:12 35.021321 -115.596976 260 10035ft 142kts
10-Jan-21 14:13 35.009522 -115.642917 260 10045ft 142kts
10-Jan-21 14:13 34.999639 -115.681342 259 10055ft 142kts
10-Jan-21 14:14 34.987743 -115.727432 259 10052ft 142kts
10-Jan-21 14:16 34.973779 -115.781327 259 10048ft 142kts
10-Jan-21 14:16 34.963801 -115.819749 259 10045ft 142kts
10-Jan-21 14:17 34.951826 -115.865784 260 10044ft 142kts
10-Jan-21 14:18 34.939846 -115.911756 260 10043ft 142kts
10-Jan-21 14:19 34.927890 -115.957549 260 10045ft 141kts
10-Jan-21 14:20 34.915943 -116.003233 260 10041ft 142kts
10-Jan-21 14:21 34.903962 -116.048978 260 10041ft 141kts
10-Jan-21 14:22 34.892012 -116.094480 260 10039ft 140kts
10-Jan-21 14:23 34.880145 -116.139567 260 10042ft 139kts
10-Jan-21 14:24 34.868303 -116.184526 260 10039ft 139kts
10-Jan-21 14:25 34.856381 -116.229680 260 10032ft 140kts
10-Jan-21 14:26 34.844329 -116.275292 260 10026ft 142kts
10-Jan-21 14:27 34.832183 -116.321226 260 10019ft 143kts
10-Jan-21 14:28 34.819884 -116.367711 260 10012ft 145kts
10-Jan-21 14:29 34.807470 -116.414590 260 10006ft 146kts
10-Jan-21 14:30 34.794976 -116.461672 260 10006ft 146kts
10-Jan-21 14:31 34.789933 -116.509538 272 10006ft 142kts
10-Jan-21 14:32 34.785299 -116.557210 272 10006ft 142kts
10-Jan-21 14:33 34.780638 -116.604986 272 10006ft 142kts
10-Jan-21 14:34 34.775943 -116.652928 271 10006ft 142kts
10-Jan-21 14:35 34.771243 -116.700736 271 10006ft 142kts
10-Jan-21 14:36 34.766519 -116.748591 271 10006ft 142kts
10-Jan-21 14:37 34.761767 -116.796520 271 10006ft 142kts
10-Jan-21 14:38 34.756999 -116.844410 271 10006ft 142kts
10-Jan-21 14:39 34.752156 -116.892387 271 10005ft 142kts
10-Jan-21 14:40 34.747320 -116.940086 271 10005ft 141kts
10-Jan-21 14:41 34.742539 -116.987126 271 10003ft 139kts
10-Jan-21 14:42 34.737814 -117.033624 271 10001ft 137kts
10-Jan-21 14:43 34.733137 -117.079491 271 9999ft 135kts
10-Jan-21 14:44 34.728548 -117.124551 271 9997ft 133kts
10-Jan-21 14:45 34.724009 -117.168929 271 9997ft 131kts
10-Jan-21 14:46 34.719474 -117.213094 271 9997ft 131kts
10-Jan-21 14:47 34.714934 -117.257093 271 9997ft 131kts
10-Jan-21 14:48 34.710385 -117.301015 271 9997ft 131kts
10-Jan-21 14:49 34.705818 -117.345095 271 9996ft 131kts
10-Jan-21 14:50 34.701184 -117.389164 271 10005ft 129kts
10-Jan-21 14:51 34.696574 -117.432960 271 10003ft 131kts
10-Jan-21 14:52 34.691967 -117.476961 271 10003ft 131kts
10-Jan-21 14:53 34.687300 -117.521213 271 10003ft 131kts
10-Jan-21 14:54 34.682657 -117.565169 271 10003ft 131kts
10-Jan-21 14:55 34.677952 -117.609575 271 10003ft 131kts
10-Jan-21 14:56 34.673106 -117.655278 271 10003ft 131kts
10-Jan-21 14:57 34.667980 -117.703523 271 10004ft 132kts
10-Jan-21 14:58 34.662889 -117.751298 271 10003ft 132kts
10-Jan-21 14:59 34.658012 -117.796457 270 10003ft 132kts
10-Jan-21 15:00 34.653186 -117.841268 270 10003ft 132kts
10-Jan-21 15:01 34.648399 -117.885550 270 10005ft 132kts
10-Jan-21 15:02 34.643605 -117.929695 270 10008ft 131kts
10-Jan-21 15:03 34.638726 -117.975121 270 9875ft 138kts
10-Jan-21 15:04 34.633670 -118.023770 269 9379ft 149kts
10-Jan-21 15:05 34.623490 -118.072590 240 9028ft 156kts
10-Jan-21 15:06 34.596295 -118.115762 240 8616ft 158kts
10-Jan-21 15:07 34.568986 -118.159767 239 8242ft 157kts
10-Jan-21 15:08 34.542189 -118.203210 238 8010ft 157kts
10-Jan-21 15:09 34.515993 -118.245101 238 7984ft 154kts
10-Jan-21 15:10 34.489927 -118.286561 239 7976ft 153kts
10-Jan-21 15:11 34.463906 -118.327940 239 7965ft 153kts
10-Jan-21 15:12 34.437738 -118.369487 239 7956ft 151kts
10-Jan-21 15:13 34.411232 -118.409733 217 7944ft 156kts
10-Jan-21 15:14 34.369265 -118.394036 152 7940ft 164kts
10-Jan-21 15:15 34.328212 -118.370562 151 7471ft 162kts
10-Jan-21 15:16 34.287335 -118.347588 149 6934ft 145kts
10-Jan-21 15:17 34.252247 -118.328037 147 6931ft 132kts
10-Jan-21 15:18 34.222414 -118.305636 160 6958ft 113kts
10-Jan-21 15:19 34.196435 -118.289357 163 6924ft 101kts
10-Jan-21 15:20 34.171213 -118.274486 164 6925ft 100kts
10-Jan-21 15:21 34.146570 -118.259030 150 6803ft 99kts
10-Jan-21 15:22 34.124264 -118.237567 150 6319ft 104kts
10-Jan-21 15:23 34.101134 -118.215855 150 5808ft 101kts
10-Jan-21 15:24 34.078481 -118.194895 150 5321ft 99kts
10-Jan-21 15:25 34.055892 -118.174399 150 4679ft 98kts
10-Jan-21 15:26 34.032631 -118.154963 170 3738ft 94kts
10-Jan-21 15:27 34.005876 -118.145665 169 2994ft 96kts
10-Jan-21 15:28 33.979795 -118.136997 169 2910ft 91kts
10-Jan-21 15:29 33.963124 -118.149435 253 2912ft 82kts
10-Jan-21 15:30 33.957792 -118.176704 264 2923ft 83kts
10-Jan-21 15:31 33.955437 -118.204918 266 2973ft 83kts
10-Jan-21 15:32 33.951751 -118.233978 266 2648ft 91kts
10-Jan-21 15:33 33.949415 -118.267295 263 2017ft 93kts
10-Jan-21 15:34 33.945191 -118.300722 267 1478ft 94kts
10-Jan-21 15:35 33.942401 -118.335959 262 937ft 99kts
10-Jan-21 15:36 33.939078 -118.366160 265 439ft 68kts
10-Jan-21 15:37 33.936952 -118.386642 266 127ft 27kts
10-Jan-21 15:38 33.936082 -118.391219 139 127ft 10kts
10-Jan-21 15:40 33.935492 -118.391071 197 127ft 8kts
10-Jan-21 15:41 33.933859 -118.390882 172 127ft 0kts

Navigation Log

Ident Type
Flight plan parsing failed, navigation log unavailable